Colonial Heights, Tennessee
Current Conditions -  °F | °C
As of 12:53 PM on Monday 24 Nov 2014 (Local Time) from KTRI Reporting Station
Few Clouds Few Clouds  
Wind Chill: 72°   Ceiling: Unl
Heat Index: 72°   Visibility: 10mi
Dew Point: 46°   Wind: 23mph
Humidity: 40%   Direction: 240°WSW
Pressure: 29.7"   Gusts: 31mph
Location:  36.4621°N, 82.5069°W
Report Text: KTRI 241753Z 24020G27KT 10SM FEW070 22/08 A2970 RMK AO2 PK WND 24027/1655 SLP036 T02220078 10222 20067 51007
Loading
Personal Weather Stations






























Interactive Weather Map New forecast layout! Learn more

10-Day Weather Forecast

Advertisements
Track Severe Weather on mobile